sensor_id;sensor_type;location;lat;lon;timestamp;P1;durP1;ratioP1;P2;durP2;ratioP2
52434;SDS011;38354;52.892;6.148;2022-08-01T03:01:55;8.95;;;4.00;;
52434;SDS011;38354;52.892;6.148;2022-08-01T03:04:22;10.98;;;4.30;;
52434;SDS011;38354;52.892;6.148;2022-08-01T03:06:52;7.45;;;3.67;;
52434;SDS011;38354;52.892;6.148;2022-08-01T03:09:20;7.43;;;3.53;;
52434;SDS011;38354;52.892;6.148;2022-08-01T03:11:47;7.90;;;3.40;;
52434;SDS011;38354;52.892;6.148;2022-08-01T03:14:14;6.90;;;3.53;;
52434;SDS011;38354;52.892;6.148;2022-08-01T03:16:42;8.80;;;4.00;;
52434;SDS011;38354;52.892;6.148;2022-08-01T03:19:10;10.75;;;3.85;;
52434;SDS011;38354;52.892;6.148;2022-08-01T03:21:37;6.90;;;4.00;;
52434;SDS011;38354;52.892;6.148;2022-08-01T03:24:05;6.65;;;3.88;;
52434;SDS011;38354;52.892;6.148;2022-08-01T03:26:33;10.82;;;5.10;;
52434;SDS011;38354;52.892;6.148;2022-08-01T03:29:08;7.40;;;4.40;;
52434;SDS011;38354;52.892;6.148;2022-08-01T03:31:41;9.27;;;4.30;;
52434;SDS011;38354;52.892;6.148;2022-08-01T03:34:09;11.00;;;5.25;;
52434;SDS011;38354;52.892;6.148;2022-08-01T03:36:37;10.32;;;4.43;;
52434;SDS011;38354;52.892;6.148;2022-08-01T03:39:10;10.80;;;4.88;;
52434;SDS011;38354;52.892;6.148;2022-08-01T03:41:39;10.13;;;4.82;;
52434;SDS011;38354;52.892;6.148;2022-08-01T03:44:10;8.45;;;4.45;;
52434;SDS011;38354;52.892;6.148;2022-08-01T03:46:43;6.60;;;4.65;;
52434;SDS011;38354;52.892;6.148;2022-08-01T03:49:17;8.30;;;4.40;;
52434;SDS011;38354;52.892;6.148;2022-08-01T03:51:45;11.23;;;5.85;;
52434;SDS011;38354;52.892;6.148;2022-08-01T03:54:17;10.85;;;4.80;;
52434;SDS011;38354;52.892;6.148;2022-08-01T03:56:47;9.35;;;4.75;;
52434;SDS011;38354;52.892;6.148;2022-08-01T03:59:15;12.73;;;5.68;;
52434;SDS011;38354;52.892;6.148;2022-08-01T04:01:47;9.25;;;4.82;;
52434;SDS011;38354;52.892;6.148;2022-08-01T04:04:13;12.95;;;5.65;;
52434;SDS011;38354;52.892;6.148;2022-08-01T04:06:39;10.43;;;4.93;;
52434;SDS011;38354;52.892;6.148;2022-08-01T04:09:06;9.73;;;4.18;;
52434;SDS011;38354;52.892;6.148;2022-08-01T04:11:33;10.85;;;5.13;;
52434;SDS011;38354;52.892;6.148;2022-08-01T04:13:58;10.30;;;5.05;;
52434;SDS011;38354;52.892;6.148;2022-08-01T04:16:25;12.25;;;4.85;;
52434;SDS011;38354;52.892;6.148;2022-08-01T04:21:32;9.75;;;4.50;;
52434;SDS011;38354;52.892;6.148;2022-08-01T04:24:01;17.23;;;5.70;;
52434;SDS011;38354;52.892;6.148;2022-08-01T04:26:30;13.15;;;5.25;;
52434;SDS011;38354;52.892;6.148;2022-08-01T04:29:00;12.50;;;5.65;;
52434;SDS011;38354;52.892;6.148;2022-08-01T04:31:27;13.90;;;5.40;;
52434;SDS011;38354;52.892;6.148;2022-08-01T04:33:55;18.17;;;5.70;;
52434;SDS011;38354;52.892;6.148;2022-08-01T04:36:23;16.45;;;5.18;;
52434;SDS011;38354;52.892;6.148;2022-08-01T04:38:52;21.50;;;5.32;;
52434;SDS011;38354;52.892;6.148;2022-08-01T04:41:22;16.42;;;5.32;;
52434;SDS011;38354;52.892;6.148;2022-08-01T04:43:49;20.60;;;4.97;;
52434;SDS011;38354;52.892;6.148;2022-08-01T04:46:16;16.98;;;5.90;;
52434;SDS011;38354;52.892;6.148;2022-08-01T04:48:44;13.68;;;5.28;;
52434;SDS011;38354;52.892;6.148;2022-08-01T04:58:34;17.73;;;5.72;;
52434;SDS011;38354;52.892;6.148;2022-08-01T05:01:02;17.67;;;5.85;;
52434;SDS011;38354;52.892;6.148;2022-08-01T05:03:27;15.90;;;5.65;;
52434;SDS011;38354;52.892;6.148;2022-08-01T05:05:53;19.63;;;5.88;;
52434;SDS011;38354;52.892;6.148;2022-08-01T05:08:19;14.88;;;4.95;;
52434;SDS011;38354;52.892;6.148;2022-08-01T05:10:45;19.42;;;5.40;;
52434;SDS011;38354;52.892;6.148;2022-08-01T05:13:11;19.25;;;4.53;;
52434;SDS011;38354;52.892;6.148;2022-08-01T05:15:36;21.13;;;4.85;;
52434;SDS011;38354;52.892;6.148;2022-08-01T05:18:02;17.98;;;5.07;;
52434;SDS011;38354;52.892;6.148;2022-08-01T05:20:28;22.48;;;4.28;;
52434;SDS011;38354;52.892;6.148;2022-08-01T05:22:54;21.73;;;5.35;;
52434;SDS011;38354;52.892;6.148;2022-08-01T05:25:19;23.67;;;5.35;;
52434;SDS011;38354;52.892;6.148;2022-08-01T05:27:45;18.27;;;4.60;;
52434;SDS011;38354;52.892;6.148;2022-08-01T05:30:11;14.05;;;4.30;;
52434;SDS011;38354;52.892;6.148;2022-08-01T05:32:37;23.15;;;4.75;;
52434;SDS011;38354;52.892;6.148;2022-08-01T05:35:03;20.23;;;4.18;;
52434;SDS011;38354;52.892;6.148;2022-08-01T05:37:29;26.70;;;4.40;;
52434;SDS011;38354;52.892;6.148;2022-08-01T05:39:55;17.50;;;3.88;;
52434;SDS011;38354;52.892;6.148;2022-08-01T05:42:20;19.33;;;4.63;;
52434;SDS011;38354;52.892;6.148;2022-08-01T05:44:46;18.13;;;4.93;;
52434;SDS011;38354;52.892;6.148;2022-08-01T05:47:12;16.88;;;4.30;;
52434;SDS011;38354;52.892;6.148;2022-08-01T05:49:38;22.05;;;4.55;;
52434;SDS011;38354;52.892;6.148;2022-08-01T05:52:04;21.90;;;4.40;;
52434;SDS011;38354;52.892;6.148;2022-08-01T05:54:30;23.48;;;4.65;;
52434;SDS011;38354;52.892;6.148;2022-08-01T05:56:56;15.68;;;4.05;;
52434;SDS011;38354;52.892;6.148;2022-08-01T05:59:25;21.55;;;4.18;;
52434;SDS011;38354;52.892;6.148;2022-08-01T06:01:50;20.23;;;4.57;;
52434;SDS011;38354;52.892;6.148;2022-08-01T06:04:16;21.30;;;4.45;;
52434;SDS011;38354;52.892;6.148;2022-08-01T06:06:42;20.48;;;4.25;;
52434;SDS011;38354;52.892;6.148;2022-08-01T06:09:08;20.52;;;4.55;;
52434;SDS011;38354;52.892;6.148;2022-08-01T06:11:33;23.33;;;4.35;;
52434;SDS011;38354;52.892;6.148;2022-08-01T06:13:59;21.02;;;4.30;;
52434;SDS011;38354;52.892;6.148;2022-08-01T06:16:25;23.23;;;4.43;;
52434;SDS011;38354;52.892;6.148;2022-08-01T06:18:51;18.17;;;4.00;;
52434;SDS011;38354;52.892;6.148;2022-08-01T06:21:29;17.13;;;3.70;;
52434;SDS011;38354;52.892;6.148;2022-08-01T06:24:28;24.02;;;4.55;;
52434;SDS011;38354;52.892;6.148;2022-08-01T06:26:53;20.40;;;4.28;;
52434;SDS011;38354;52.892;6.148;2022-08-01T06:29:19;17.70;;;4.90;;
52434;SDS011;38354;52.892;6.148;2022-08-01T06:31:44;27.08;;;4.65;;
52434;SDS011;38354;52.892;6.148;2022-08-01T06:34:10;20.75;;;3.97;;
52434;SDS011;38354;52.892;6.148;2022-08-01T06:36:36;17.58;;;3.90;;
52434;SDS011;38354;52.892;6.148;2022-08-01T06:39:01;24.25;;;5.07;;
52434;SDS011;38354;52.892;6.148;2022-08-01T06:41:27;20.15;;;4.22;;
52434;SDS011;38354;52.892;6.148;2022-08-01T06:43:53;19.52;;;4.43;;
52434;SDS011;38354;52.892;6.148;2022-08-01T06:46:18;17.50;;;4.03;;
52434;SDS011;38354;52.892;6.148;2022-08-01T06:48:44;19.83;;;4.45;;
52434;SDS011;38354;52.892;6.148;2022-08-01T06:51:10;16.42;;;3.85;;
52434;SDS011;38354;52.892;6.148;2022-08-01T06:53:38;19.35;;;3.70;;
52434;SDS011;38354;52.892;6.148;2022-08-01T06:56:04;18.67;;;4.43;;
52434;SDS011;38354;52.892;6.148;2022-08-01T06:58:31;11.88;;;3.17;;
52434;SDS011;38354;52.892;6.148;2022-08-01T07:00:59;15.63;;;4.22;;
52434;SDS011;38354;52.892;6.148;2022-08-01T07:03:25;15.45;;;3.53;;
52434;SDS011;38354;52.892;6.148;2022-08-01T07:05:52;22.63;;;3.83;;
52434;SDS011;38354;52.892;6.148;2022-08-01T07:08:17;17.85;;;4.22;;
52434;SDS011;38354;52.892;6.148;2022-08-01T07:10:43;13.35;;;3.47;;
52434;SDS011;38354;52.892;6.148;2022-08-01T07:13:09;14.55;;;3.67;;
52434;SDS011;38354;52.892;6.148;2022-08-01T07:15:34;20.33;;;4.10;;
52434;SDS011;38354;52.892;6.148;2022-08-01T07:18:00;13.25;;;3.10;;
52434;SDS011;38354;52.892;6.148;2022-08-01T07:20:28;18.77;;;4.13;;
52434;SDS011;38354;52.892;6.148;2022-08-01T07:22:54;16.35;;;4.10;;
52434;SDS011;38354;52.892;6.148;2022-08-01T07:25:20;18.50;;;4.10;;
52434;SDS011;38354;52.892;6.148;2022-08-01T07:27:45;14.85;;;3.78;;
52434;SDS011;38354;52.892;6.148;2022-08-01T07:30:11;19.38;;;3.42;;
52434;SDS011;38354;52.892;6.148;2022-08-01T07:32:37;16.70;;;3.47;;
52434;SDS011;38354;52.892;6.148;2022-08-01T07:35:03;17.63;;;3.83;;
52434;SDS011;38354;52.892;6.148;2022-08-01T07:37:29;19.73;;;3.58;;
52434;SDS011;38354;52.892;6.148;2022-08-01T07:39:54;17.17;;;4.00;;
52434;SDS011;38354;52.892;6.148;2022-08-01T07:42:20;21.48;;;4.38;;
52434;SDS011;38354;52.892;6.148;2022-08-01T07:44:46;18.42;;;3.60;;
52434;SDS011;38354;52.892;6.148;2022-08-01T07:47:12;15.25;;;3.20;;
52434;SDS011;38354;52.892;6.148;2022-08-01T07:49:37;15.48;;;4.18;;
52434;SDS011;38354;52.892;6.148;2022-08-01T07:52:04;15.45;;;4.00;;
52434;SDS011;38354;52.892;6.148;2022-08-01T07:54:30;15.10;;;3.40;;
52434;SDS011;38354;52.892;6.148;2022-08-01T07:56:57;20.20;;;3.25;;
52434;SDS011;38354;52.892;6.148;2022-08-01T07:59:22;18.48;;;2.92;;
52434;SDS011;38354;52.892;6.148;2022-08-01T08:01:51;16.45;;;3.67;;
52434;SDS011;38354;52.892;6.148;2022-08-01T08:04:17;19.02;;;3.28;;
52434;SDS011;38354;52.892;6.148;2022-08-01T08:06:43;16.13;;;3.42;;
52434;SDS011;38354;52.892;6.148;2022-08-01T08:09:12;15.48;;;3.40;;
52434;SDS011;38354;52.892;6.148;2022-08-01T08:11:38;23.52;;;4.25;;
52434;SDS011;38354;52.892;6.148;2022-08-01T08:14:03;18.17;;;2.95;;
52434;SDS011;38354;52.892;6.148;2022-08-01T08:16:29;12.40;;;2.90;;
52434;SDS011;38354;52.892;6.148;2022-08-01T08:18:55;12.40;;;3.15;;
52434;SDS011;38354;52.892;6.148;2022-08-01T08:21:21;16.60;;;3.50;;
52434;SDS011;38354;52.892;6.148;2022-08-01T08:23:46;14.13;;;2.92;;
52434;SDS011;38354;52.892;6.148;2022-08-01T08:26:30;14.27;;;3.13;;
52434;SDS011;38354;52.892;6.148;2022-08-01T08:28:56;13.10;;;2.85;;
52434;SDS011;38354;52.892;6.148;2022-08-01T08:31:22;19.23;;;3.25;;
52434;SDS011;38354;52.892;6.148;2022-08-01T08:33:47;11.57;;;2.55;;
52434;SDS011;38354;52.892;6.148;2022-08-01T08:36:13;12.90;;;2.65;;
52434;SDS011;38354;52.892;6.148;2022-08-01T08:38:39;11.32;;;2.38;;
52434;SDS011;38354;52.892;6.148;2022-08-01T08:41:05;16.27;;;2.63;;
52434;SDS011;38354;52.892;6.148;2022-08-01T08:43:31;13.63;;;2.70;;
52434;SDS011;38354;52.892;6.148;2022-08-01T08:45:57;14.65;;;2.78;;
52434;SDS011;38354;52.892;6.148;2022-08-01T08:48:23;9.88;;;2.20;;
52434;SDS011;38354;52.892;6.148;2022-08-01T08:50:49;10.73;;;2.63;;
52434;SDS011;38354;52.892;6.148;2022-08-01T08:53:16;16.60;;;2.95;;
52434;SDS011;38354;52.892;6.148;2022-08-01T08:55:43;11.65;;;2.63;;
52434;SDS011;38354;52.892;6.148;2022-08-01T08:58:11;10.68;;;2.33;;
52434;SDS011;38354;52.892;6.148;2022-08-01T09:00:39;14.40;;;2.55;;
52434;SDS011;38354;52.892;6.148;2022-08-01T09:03:05;6.78;;;1.98;;
52434;SDS011;38354;52.892;6.148;2022-08-01T09:05:31;9.43;;;2.28;;
52434;SDS011;38354;52.892;6.148;2022-08-01T09:07:57;12.02;;;2.10;;
52434;SDS011;38354;52.892;6.148;2022-08-01T09:10:22;12.23;;;2.08;;
52434;SDS011;38354;52.892;6.148;2022-08-01T09:13:05;7.68;;;1.70;;
52434;SDS011;38354;52.892;6.148;2022-08-01T09:15:47;8.65;;;2.22;;
52434;SDS011;38354;52.892;6.148;2022-08-01T09:18:39;12.27;;;2.17;;
52434;SDS011;38354;52.892;6.148;2022-08-01T09:23:35;11.25;;;2.53;;
52434;SDS011;38354;52.892;6.148;2022-08-01T09:26:14;11.30;;;2.15;;
52434;SDS011;38354;52.892;6.148;2022-08-01T09:28:43;9.30;;;1.70;;
52434;SDS011;38354;52.892;6.148;2022-08-01T09:31:10;16.02;;;3.15;;
52434;SDS011;38354;52.892;6.148;2022-08-01T09:33:57;14.02;;;2.85;;
52434;SDS011;38354;52.892;6.148;2022-08-01T09:39:30;8.90;;;2.20;;
52434;SDS011;38354;52.892;6.148;2022-08-01T09:44:50;9.00;;;1.85;;
52434;SDS011;38354;52.892;6.148;2022-08-01T09:47:17;7.83;;;1.90;;
52434;SDS011;38354;52.892;6.148;2022-08-01T09:52:32;11.30;;;1.90;;
52434;SDS011;38354;52.892;6.148;2022-08-01T09:54:58;11.38;;;2.13;;
52434;SDS011;38354;52.892;6.148;2022-08-01T09:57:26;9.10;;;1.73;;
52434;SDS011;38354;52.892;6.148;2022-08-01T09:59:54;8.18;;;1.85;;
52434;SDS011;38354;52.892;6.148;2022-08-01T10:04:52;8.40;;;2.05;;
52434;SDS011;38354;52.892;6.148;2022-08-01T10:07:19;10.55;;;1.73;;
52434;SDS011;38354;52.892;6.148;2022-08-01T10:09:45;16.85;;;2.60;;
52434;SDS011;38354;52.892;6.148;2022-08-01T10:12:13;11.13;;;2.50;;
52434;SDS011;38354;52.892;6.148;2022-08-01T10:14:46;10.43;;;2.28;;
52434;SDS011;38354;52.892;6.148;2022-08-01T10:17:20;9.18;;;1.83;;
52434;SDS011;38354;52.892;6.148;2022-08-01T10:19:50;10.18;;;2.05;;
52434;SDS011;38354;52.892;6.148;2022-08-01T10:22:19;11.65;;;1.83;;
52434;SDS011;38354;52.892;6.148;2022-08-01T10:24:50;8.95;;;1.85;;
52434;SDS011;38354;52.892;6.148;2022-08-01T10:27:19;10.02;;;2.28;;
52434;SDS011;38354;52.892;6.148;2022-08-01T10:29:59;9.27;;;1.83;;
52434;SDS011;38354;52.892;6.148;2022-08-01T10:32:34;6.15;;;1.35;;
52434;SDS011;38354;52.892;6.148;2022-08-01T10:35:01;8.75;;;1.70;;
52434;SDS011;38354;52.892;6.148;2022-08-01T10:37:28;10.70;;;1.73;;
52434;SDS011;38354;52.892;6.148;2022-08-01T10:39:58;12.38;;;2.60;;
52434;SDS011;38354;52.892;6.148;2022-08-01T10:42:31;9.35;;;2.20;;
52434;SDS011;38354;52.892;6.148;2022-08-01T10:44:58;5.90;;;1.60;;
52434;SDS011;38354;52.892;6.148;2022-08-01T10:47:25;6.38;;;1.35;;
52434;SDS011;38354;52.892;6.148;2022-08-01T10:50:04;8.93;;;1.77;;
52434;SDS011;38354;52.892;6.148;2022-08-01T10:52:40;7.05;;;1.73;;
52434;SDS011;38354;52.892;6.148;2022-08-01T10:55:09;7.57;;;1.90;;
52434;SDS011;38354;52.892;6.148;2022-08-01T10:57:46;9.98;;;2.28;;
52434;SDS011;38354;52.892;6.148;2022-08-01T11:00:22;8.52;;;1.75;;
52434;SDS011;38354;52.892;6.148;2022-08-01T11:03:00;6.95;;;1.40;;
52434;SDS011;38354;52.892;6.148;2022-08-01T11:05:32;5.65;;;1.30;;
52434;SDS011;38354;52.892;6.148;2022-08-01T11:08:03;5.95;;;1.48;;
52434;SDS011;38354;52.892;6.148;2022-08-01T11:10:38;8.98;;;2.00;;
52434;SDS011;38354;52.892;6.148;2022-08-01T11:13:08;7.57;;;1.52;;
52434;SDS011;38354;52.892;6.148;2022-08-01T11:15:36;7.65;;;2.60;;
52434;SDS011;38354;52.892;6.148;2022-08-01T11:20:55;5.13;;;1.50;;
52434;SDS011;38354;52.892;6.148;2022-08-01T11:23:29;5.93;;;1.20;;
52434;SDS011;38354;52.892;6.148;2022-08-01T11:34:03;7.88;;;2.40;;
52434;SDS011;38354;52.892;6.148;2022-08-01T11:36:29;12.07;;;2.17;;
52434;SDS011;38354;52.892;6.148;2022-08-01T11:41:30;7.22;;;1.60;;
52434;SDS011;38354;52.892;6.148;2022-08-01T11:44:18;9.93;;;1.75;;
52434;SDS011;38354;52.892;6.148;2022-08-01T11:46:57;5.68;;;1.15;;
52434;SDS011;38354;52.892;6.148;2022-08-01T11:52:39;8.55;;;1.50;;
52434;SDS011;38354;52.892;6.148;2022-08-01T11:55:17;6.75;;;1.38;;
52434;SDS011;38354;52.892;6.148;2022-08-01T11:57:46;7.03;;;1.60;;
52434;SDS011;38354;52.892;6.148;2022-08-01T12:00:17;8.07;;;1.77;;
52434;SDS011;38354;52.892;6.148;2022-08-01T12:02:44;5.10;;;1.13;;
52434;SDS011;38354;52.892;6.148;2022-08-01T12:05:12;4.85;;;1.30;;
52434;SDS011;38354;52.892;6.148;2022-08-01T12:07:39;8.13;;;1.48;;
52434;SDS011;38354;52.892;6.148;2022-08-01T12:10:09;6.50;;;1.08;;
52434;SDS011;38354;52.892;6.148;2022-08-01T12:12:35;3.58;;;1.20;;
52434;SDS011;38354;52.892;6.148;2022-08-01T12:15:04;7.97;;;1.58;;
52434;SDS011;38354;52.892;6.148;2022-08-01T12:17:32;8.40;;;1.15;;
52434;SDS011;38354;52.892;6.148;2022-08-01T12:20:00;6.95;;;1.60;;
52434;SDS011;38354;52.892;6.148;2022-08-01T12:22:27;7.00;;;1.35;;
52434;SDS011;38354;52.892;6.148;2022-08-01T12:24:53;5.65;;;1.50;;
52434;SDS011;38354;52.892;6.148;2022-08-01T12:27:28;8.65;;;1.30;;
52434;SDS011;38354;52.892;6.148;2022-08-01T12:29:56;6.25;;;1.23;;
52434;SDS011;38354;52.892;6.148;2022-08-01T12:32:25;4.32;;;1.02;;
52434;SDS011;38354;52.892;6.148;2022-08-01T12:34:54;7.35;;;1.33;;
52434;SDS011;38354;52.892;6.148;2022-08-01T12:37:21;6.55;;;1.20;;
52434;SDS011;38354;52.892;6.148;2022-08-01T12:39:47;5.78;;;1.05;;
52434;SDS011;38354;52.892;6.148;2022-08-01T12:42:13;5.32;;;1.20;;
52434;SDS011;38354;52.892;6.148;2022-08-01T12:44:40;5.35;;;1.70;;
52434;SDS011;38354;52.892;6.148;2022-08-01T12:47:08;6.60;;;1.50;;
52434;SDS011;38354;52.892;6.148;2022-08-01T12:49:35;6.38;;;1.20;;
52434;SDS011;38354;52.892;6.148;2022-08-01T12:52:02;4.47;;;1.17;;
52434;SDS011;38354;52.892;6.148;2022-08-01T12:54:28;8.38;;;1.63;;
52434;SDS011;38354;52.892;6.148;2022-08-01T12:56:54;4.55;;;1.02;;
52434;SDS011;38354;52.892;6.148;2022-08-01T12:59:27;5.10;;;1.05;;
52434;SDS011;38354;52.892;6.148;2022-08-01T13:01:54;8.90;;;1.30;;
52434;SDS011;38354;52.892;6.148;2022-08-01T13:04:20;6.03;;;1.20;;
52434;SDS011;38354;52.892;6.148;2022-08-01T13:06:47;6.35;;;1.08;;
52434;SDS011;38354;52.892;6.148;2022-08-01T13:09:17;5.47;;;1.27;;
52434;SDS011;38354;52.892;6.148;2022-08-01T13:11:43;8.05;;;1.23;;
52434;SDS011;38354;52.892;6.148;2022-08-01T13:14:11;5.70;;;1.15;;
52434;SDS011;38354;52.892;6.148;2022-08-01T13:16:52;4.60;;;0.95;;
52434;SDS011;38354;52.892;6.148;2022-08-01T13:19:17;6.65;;;1.17;;
52434;SDS011;38354;52.892;6.148;2022-08-01T13:21:53;6.25;;;1.02;;
52434;SDS011;38354;52.892;6.148;2022-08-01T13:24:24;4.75;;;1.20;;
52434;SDS011;38354;52.892;6.148;2022-08-01T13:26:52;4.45;;;1.02;;
52434;SDS011;38354;52.892;6.148;2022-08-01T13:29:38;5.43;;;1.10;;
52434;SDS011;38354;52.892;6.148;2022-08-01T13:32:17;8.15;;;1.30;;
52434;SDS011;38354;52.892;6.148;2022-08-01T13:34:45;7.32;;;1.38;;
52434;SDS011;38354;52.892;6.148;2022-08-01T13:37:11;6.03;;;1.48;;
52434;SDS011;38354;52.892;6.148;2022-08-01T13:39:36;8.60;;;1.48;;
52434;SDS011;38354;52.892;6.148;2022-08-01T13:42:05;4.63;;;1.10;;
52434;SDS011;38354;52.892;6.148;2022-08-01T13:44:35;8.25;;;1.50;;
52434;SDS011;38354;52.892;6.148;2022-08-01T13:47:01;4.22;;;0.90;;
52434;SDS011;38354;52.892;6.148;2022-08-01T13:49:29;7.90;;;1.10;;
52434;SDS011;38354;52.892;6.148;2022-08-01T13:51:55;7.97;;;1.40;;
52434;SDS011;38354;52.892;6.148;2022-08-01T13:54:21;3.40;;;1.05;;
52434;SDS011;38354;52.892;6.148;2022-08-01T13:56:48;4.68;;;0.90;;
52434;SDS011;38354;52.892;6.148;2022-08-01T13:59:14;6.10;;;1.15;;
52434;SDS011;38354;52.892;6.148;2022-08-01T14:01:40;3.33;;;1.00;;
52434;SDS011;38354;52.892;6.148;2022-08-01T14:04:06;5.82;;;1.15;;
52434;SDS011;38354;52.892;6.148;2022-08-01T14:06:32;5.18;;;1.15;;
52434;SDS011;38354;52.892;6.148;2022-08-01T14:08:57;5.20;;;0.98;;
52434;SDS011;38354;52.892;6.148;2022-08-01T14:11:23;5.05;;;1.17;;
52434;SDS011;38354;52.892;6.148;2022-08-01T14:13:49;7.32;;;1.13;;
52434;SDS011;38354;52.892;6.148;2022-08-01T14:16:16;7.53;;;1.25;;
52434;SDS011;38354;52.892;6.148;2022-08-01T14:18:42;7.30;;;1.45;;
52434;SDS011;38354;52.892;6.148;2022-08-01T14:21:08;6.20;;;1.05;;
52434;SDS011;38354;52.892;6.148;2022-08-01T14:23:33;4.35;;;1.25;;
52434;SDS011;38354;52.892;6.148;2022-08-01T14:25:59;7.15;;;1.13;;
52434;SDS011;38354;52.892;6.148;2022-08-01T14:28:25;4.13;;;0.93;;
52434;SDS011;38354;52.892;6.148;2022-08-01T14:30:52;4.30;;;0.95;;
52434;SDS011;38354;52.892;6.148;2022-08-01T14:33:20;5.80;;;1.25;;
52434;SDS011;38354;52.892;6.148;2022-08-01T14:35:46;5.38;;;1.10;;
52434;SDS011;38354;52.892;6.148;2022-08-01T14:38:12;6.60;;;1.27;;
52434;SDS011;38354;52.892;6.148;2022-08-01T14:40:38;4.70;;;1.13;;
52434;SDS011;38354;52.892;6.148;2022-08-01T14:43:05;3.88;;;0.90;;
52434;SDS011;38354;52.892;6.148;2022-08-01T14:45:31;3.78;;;0.80;;
52434;SDS011;38354;52.892;6.148;2022-08-01T14:47:58;5.70;;;1.23;;
52434;SDS011;38354;52.892;6.148;2022-08-01T14:50:24;3.45;;;1.20;;
52434;SDS011;38354;52.892;6.148;2022-08-01T14:52:51;4.82;;;1.00;;
52434;SDS011;38354;52.892;6.148;2022-08-01T14:55:18;5.47;;;1.30;;
52434;SDS011;38354;52.892;6.148;2022-08-01T14:57:48;3.50;;;0.93;;
52434;SDS011;38354;52.892;6.148;2022-08-01T15:00:14;3.10;;;0.70;;
52434;SDS011;38354;52.892;6.148;2022-08-01T15:02:40;5.63;;;0.90;;
52434;SDS011;38354;52.892;6.148;2022-08-01T15:05:06;4.78;;;1.00;;
52434;SDS011;38354;52.892;6.148;2022-08-01T15:07:33;8.15;;;1.25;;
52434;SDS011;38354;52.892;6.148;2022-08-01T15:09:59;5.05;;;1.08;;
52434;SDS011;38354;52.892;6.148;2022-08-01T15:12:24;5.20;;;0.90;;
52434;SDS011;38354;52.892;6.148;2022-08-01T15:14:50;3.03;;;0.82;;
52434;SDS011;38354;52.892;6.148;2022-08-01T15:17:22;4.18;;;0.85;;
52434;SDS011;38354;52.892;6.148;2022-08-01T15:19:53;5.15;;;1.00;;
52434;SDS011;38354;52.892;6.148;2022-08-01T15:22:20;6.53;;;1.30;;
52434;SDS011;38354;52.892;6.148;2022-08-01T15:24:47;4.72;;;1.25;;
52434;SDS011;38354;52.892;6.148;2022-08-01T15:27:13;6.55;;;1.25;;
52434;SDS011;38354;52.892;6.148;2022-08-01T15:29:39;5.25;;;1.00;;
52434;SDS011;38354;52.892;6.148;2022-08-01T15:32:05;6.60;;;1.25;;
52434;SDS011;38354;52.892;6.148;2022-08-01T15:34:36;4.13;;;1.10;;
52434;SDS011;38354;52.892;6.148;2022-08-01T15:37:02;8.73;;;1.40;;
52434;SDS011;38354;52.892;6.148;2022-08-01T15:39:28;4.22;;;1.02;;
52434;SDS011;38354;52.892;6.148;2022-08-01T15:41:57;4.18;;;1.10;;
52434;SDS011;38354;52.892;6.148;2022-08-01T15:44:33;4.85;;;1.25;;
52434;SDS011;38354;52.892;6.148;2022-08-01T15:46:59;10.35;;;1.30;;
52434;SDS011;38354;52.892;6.148;2022-08-01T15:49:26;4.78;;;1.15;;
52434;SDS011;38354;52.892;6.148;2022-08-01T15:51:51;8.43;;;1.52;;
52434;SDS011;38354;52.892;6.148;2022-08-01T15:54:17;7.65;;;1.60;;
52434;SDS011;38354;52.892;6.148;2022-08-01T15:56:43;9.77;;;2.08;;
52434;SDS011;38354;52.892;6.148;2022-08-01T15:59:09;5.38;;;1.05;;
52434;SDS011;38354;52.892;6.148;2022-08-01T16:01:35;6.70;;;1.30;;
52434;SDS011;38354;52.892;6.148;2022-08-01T16:04:02;7.55;;;1.30;;
52434;SDS011;38354;52.892;6.148;2022-08-01T16:06:27;4.40;;;0.80;;
52434;SDS011;38354;52.892;6.148;2022-08-01T16:08:53;6.70;;;1.17;;
52434;SDS011;38354;52.892;6.148;2022-08-01T16:11:22;7.50;;;1.42;;
52434;SDS011;38354;52.892;6.148;2022-08-01T16:13:51;5.47;;;0.93;;
52434;SDS011;38354;52.892;6.148;2022-08-01T16:16:16;3.58;;;1.25;;
52434;SDS011;38354;52.892;6.148;2022-08-01T16:18:42;6.07;;;1.20;;
52434;SDS011;38354;52.892;6.148;2022-08-01T16:21:08;4.55;;;1.10;;
52434;SDS011;38354;52.892;6.148;2022-08-01T16:23:36;7.88;;;1.45;;
52434;SDS011;38354;52.892;6.148;2022-08-01T16:26:02;7.05;;;1.40;;
52434;SDS011;38354;52.892;6.148;2022-08-01T16:28:28;6.97;;;1.33;;
52434;SDS011;38354;52.892;6.148;2022-08-01T16:30:54;5.68;;;0.90;;
52434;SDS011;38354;52.892;6.148;2022-08-01T16:33:20;6.45;;;1.70;;
52434;SDS011;38354;52.892;6.148;2022-08-01T16:35:48;6.05;;;1.10;;
52434;SDS011;38354;52.892;6.148;2022-08-01T16:38:14;3.50;;;0.90;;
52434;SDS011;38354;52.892;6.148;2022-08-01T16:40:42;5.32;;;1.10;;
52434;SDS011;38354;52.892;6.148;2022-08-01T16:43:08;6.03;;;1.42;;
52434;SDS011;38354;52.892;6.148;2022-08-01T16:45:37;3.85;;;1.00;;
52434;SDS011;38354;52.892;6.148;2022-08-01T16:48:19;4.15;;;1.02;;
52434;SDS011;38354;52.892;6.148;2022-08-01T16:50:45;5.70;;;1.10;;
52434;SDS011;38354;52.892;6.148;2022-08-01T16:53:14;5.18;;;1.13;;
52434;SDS011;38354;52.892;6.148;2022-08-01T16:55:43;5.22;;;1.33;;
52434;SDS011;38354;52.892;6.148;2022-08-01T16:58:10;5.40;;;1.02;;
52434;SDS011;38354;52.892;6.148;2022-08-01T17:00:37;7.50;;;1.27;;
52434;SDS011;38354;52.892;6.148;2022-08-01T17:03:09;7.43;;;1.58;;
52434;SDS011;38354;52.892;6.148;2022-08-01T17:05:57;4.78;;;1.10;;
52434;SDS011;38354;52.892;6.148;2022-08-01T17:08:28;4.90;;;1.15;;
52434;SDS011;38354;52.892;6.148;2022-08-01T17:20:08;7.38;;;1.30;;
52434;SDS011;38354;52.892;6.148;2022-08-01T17:22:35;5.15;;;0.98;;
52434;SDS011;38354;52.892;6.148;2022-08-01T17:25:13;6.43;;;1.05;;
52434;SDS011;38354;52.892;6.148;2022-08-01T17:27:43;5.22;;;1.05;;
52434;SDS011;38354;52.892;6.148;2022-08-01T17:30:19;4.65;;;1.17;;
52434;SDS011;38354;52.892;6.148;2022-08-01T17:33:08;3.70;;;1.00;;
52434;SDS011;38354;52.892;6.148;2022-08-01T17:39:07;3.85;;;1.20;;
52434;SDS011;38354;52.892;6.148;2022-08-01T17:41:33;4.70;;;1.55;;
52434;SDS011;38354;52.892;6.148;2022-08-01T17:44:00;6.53;;;1.42;;
52434;SDS011;38354;52.892;6.148;2022-08-01T17:46:28;4.90;;;1.13;;
52434;SDS011;38354;52.892;6.148;2022-08-01T17:48:57;5.43;;;1.50;;
52434;SDS011;38354;52.892;6.148;2022-08-01T17:51:26;10.05;;;1.60;;
52434;SDS011;38354;52.892;6.148;2022-08-01T17:53:54;5.50;;;1.17;;
52434;SDS011;38354;52.892;6.148;2022-08-01T17:56:39;5.53;;;1.33;;
52434;SDS011;38354;52.892;6.148;2022-08-01T17:59:08;5.25;;;1.20;;
52434;SDS011;38354;52.892;6.148;2022-08-01T18:01:43;4.88;;;1.30;;
52434;SDS011;38354;52.892;6.148;2022-08-01T18:04:14;5.65;;;1.20;;
52434;SDS011;38354;52.892;6.148;2022-08-01T18:13:59;4.38;;;0.80;;
52434;SDS011;38354;52.892;6.148;2022-08-01T18:19:33;6.38;;;1.25;;
52434;SDS011;38354;52.892;6.148;2022-08-01T18:30:10;5.18;;;1.20;;
52434;SDS011;38354;52.892;6.148;2022-08-01T18:45:07;8.23;;;1.30;;
52434;SDS011;38354;52.892;6.148;2022-08-01T19:11:49;8.40;;;1.65;;
52434;SDS011;38354;52.892;6.148;2022-08-01T19:27:14;10.35;;;2.42;;
52434;SDS011;38354;52.892;6.148;2022-08-01T19:29:46;10.80;;;2.30;;
52434;SDS011;38354;52.892;6.148;2022-08-01T19:32:19;6.07;;;1.67;;
52434;SDS011;38354;52.892;6.148;2022-08-01T19:35:02;10.25;;;1.80;;
52434;SDS011;38354;52.892;6.148;2022-08-01T19:37:32;8.98;;;1.65;;
52434;SDS011;38354;52.892;6.148;2022-08-01T19:39:59;7.75;;;1.88;;
52434;SDS011;38354;52.892;6.148;2022-08-01T19:42:26;8.25;;;1.95;;
52434;SDS011;38354;52.892;6.148;2022-08-01T19:44:53;9.77;;;1.95;;
52434;SDS011;38354;52.892;6.148;2022-08-01T19:47:20;7.50;;;1.90;;
52434;SDS011;38354;52.892;6.148;2022-08-01T19:49:45;9.23;;;2.15;;
52434;SDS011;38354;52.892;6.148;2022-08-01T19:52:11;8.95;;;1.90;;